Fayetteville, Arkansas
Current Conditions -  °F | °C
As of 9:53 PM on Friday 19 Dec 2014 (Local Time) from KFYV Reporting Station
Haze Haze  
Wind Chill: 37°   Ceiling: 800
Heat Index: 40°   Visibility: 3mi
Dew Point: 40°   Wind: 5mph
Humidity: 100%   Direction: 230°SW
Pressure: 30.2"   Gusts: NA
Location:  36.06°N, 94.16°W
Report Text: KFYV 200353Z AUTO 23004KT 3SM BR OVC008 04/04 A3020 RMK AO2 CIG 006V012 SLP230 T00440044 $
Loading
Personal Weather Stations






























Interactive Weather Map New forecast layout! Learn more

10-Day Weather Forecast

Advertisements
Track Severe Weather on mobile